Terminal Aerodrome Forecast
Issued by NWS

Home | Current Version | Previous Version | Graphics & Text | Print | Product List | Glossary On
Versions: 1 2 3 4 5 6 7 8 9 10 11 12 13 14 15 16 17 18 19 20
665
FTUS43 KLSX 261731
TAFSUS
TAF
KSUS 261731Z 2618/2718 25008KT P6SM SCT050
     FM270400 16004KT P6SM VCTS BKN080CB
     FM270700 21004KT 6SM -SHRA VCTS OVC060CB
     FM271400 23005KT P6SM OVC030=

USA.gov is the U.S. government's official web portal to all federal, state and local government web resources and services.